createdAt,value
2017-02-15T00:00:42.221Z,0
2017-02-15T00:01:52.654Z,0
2017-02-15T00:03:03.048Z,0
2017-02-15T00:04:13.816Z,0
2017-02-15T00:05:24.604Z,0
2017-02-15T00:06:35.386Z,0
2017-02-15T00:07:45.764Z,0
2017-02-15T00:08:56.570Z,0
2017-02-15T00:10:07.364Z,0
2017-02-15T00:11:17.794Z,0
2017-02-15T00:12:28.169Z,0
2017-02-15T00:13:38.576Z,0
2017-02-15T00:14:49.032Z,0
2017-02-15T00:15:59.811Z,0
2017-02-15T00:17:10.242Z,0
2017-02-15T00:18:21.029Z,0
2017-02-15T00:19:31.420Z,0
2017-02-15T00:20:42.207Z,0
2017-02-15T00:21:52.981Z,0
2017-02-15T00:23:03.757Z,0
2017-02-15T00:24:14.532Z,0
2017-02-15T00:25:24.539Z,0
2017-02-15T00:26:35.403Z,0
2017-02-15T00:27:45.783Z,0
2017-02-15T00:28:56.183Z,0
2017-02-15T00:30:06.952Z,0
2017-02-15T00:31:17.722Z,0
2017-02-15T00:32:28.504Z,0
2017-02-15T00:33:39.326Z,0
2017-02-15T00:34:49.708Z,0
2017-02-15T00:36:00.112Z,0
2017-02-15T00:37:10.491Z,0
2017-02-15T00:38:21.395Z,0
2017-02-15T00:39:31.787Z,0
2017-02-15T00:40:42.153Z,0
2017-02-15T00:41:52.173Z,0
2017-02-15T00:43:02.195Z,0
2017-02-15T00:44:12.240Z,0
2017-02-15T00:45:22.633Z,0
2017-02-15T00:46:33.017Z,0
2017-02-15T00:47:43.422Z,0
2017-02-15T00:48:54.212Z,0
2017-02-15T00:50:04.607Z,0
2017-02-15T00:51:14.591Z,0
2017-02-15T00:52:24.979Z,0
2017-02-15T00:53:35.372Z,0
2017-02-15T00:54:46.172Z,0
2017-02-15T00:55:57.005Z,0
2017-02-15T00:57:07.781Z,0
2017-02-15T00:58:17.786Z,0
2017-02-15T00:59:28.170Z,0
2017-02-15T01:00:38.576Z,0
2017-02-15T01:01:48.977Z,0
2017-02-15T01:02:59.749Z,0
2017-02-15T01:04:10.524Z,0
2017-02-15T01:05:20.513Z,0
2017-02-15T01:06:30.531Z,0
2017-02-15T01:07:41.372Z,0
2017-02-15T01:08:51.759Z,0
2017-02-15T01:10:01.761Z,0
2017-02-15T01:11:12.537Z,0
2017-02-15T01:12:23.315Z,0
2017-02-15T01:13:33.316Z,0
2017-02-15T01:14:44.097Z,0
2017-02-15T01:15:54.904Z,0
2017-02-15T01:17:05.312Z,0
2017-02-15T01:18:15.680Z,0
2017-02-15T01:19:26.467Z,0
2017-02-15T01:20:36.836Z,0
2017-02-15T01:21:47.630Z,0
2017-02-15T01:22:58.416Z,0
2017-02-15T01:24:08.830Z,0
2017-02-15T01:25:19.257Z,0
2017-02-15T01:26:29.613Z,0
2017-02-15T01:27:40.002Z,0
2017-02-15T01:28:49.597Z,0
2017-02-15T01:30:00.375Z,0
2017-02-15T01:31:11.169Z,0
2017-02-15T01:32:21.563Z,0
2017-02-15T01:33:31.966Z,0
2017-02-15T01:34:41.955Z,0
2017-02-15T01:35:51.965Z,0
2017-02-15T01:37:02.410Z,0
2017-02-15T01:38:12.411Z,0
2017-02-15T01:39:22.777Z,0
2017-02-15T01:40:33.168Z,0
2017-02-15T01:41:43.588Z,0
2017-02-15T01:42:54.388Z,0
2017-02-15T01:44:03.987Z,0
2017-02-15T01:45:14.773Z,0
2017-02-15T01:46:25.553Z,0
2017-02-15T01:47:36.318Z,0
2017-02-15T01:48:46.369Z,0
2017-02-15T01:49:56.741Z,0
2017-02-15T01:51:07.513Z,0
2017-02-15T01:52:18.292Z,0
2017-02-15T01:53:29.083Z,0
2017-02-15T01:54:39.855Z,0
2017-02-15T01:55:50.228Z,0
2017-02-15T01:57:00.604Z,0
2017-02-15T01:58:11.430Z,0
2017-02-15T01:59:21.828Z,0
2017-02-15T02:00:32.663Z,0
2017-02-15T02:01:42.245Z,0
2017-02-15T02:02:52.630Z,0
2017-02-15T02:04:03.068Z,0
2017-02-15T02:05:13.844Z,0
2017-02-15T02:06:24.287Z,0
2017-02-15T02:07:33.877Z,0
2017-02-15T02:08:43.887Z,0
2017-02-15T02:09:54.279Z,0
2017-02-15T02:11:05.063Z,0
2017-02-15T02:12:15.475Z,0
2017-02-15T02:13:25.475Z,0
2017-02-15T02:14:35.867Z,0
2017-02-15T02:15:46.650Z,0
2017-02-15T02:16:56.630Z,0
2017-02-15T02:18:07.444Z,0
2017-02-15T02:19:17.810Z,0
2017-02-15T02:20:28.626Z,0
2017-02-15T02:21:38.603Z,0
2017-02-15T02:22:48.976Z,0
2017-02-15T02:23:59.772Z,0
2017-02-15T02:25:10.149Z,0
2017-02-15T02:26:20.929Z,0
2017-02-15T02:27:31.729Z,0
2017-02-15T02:28:42.527Z,0
2017-02-15T02:29:53.361Z,0
2017-02-15T02:31:03.747Z,0
2017-02-15T02:32:13.757Z,0
2017-02-15T02:33:24.551Z,0
2017-02-15T02:34:34.948Z,0
2017-02-15T02:35:45.723Z,0
2017-02-15T02:36:56.724Z,0
2017-02-15T02:38:07.093Z,0
2017-02-15T02:39:17.483Z,0
2017-02-15T02:40:28.246Z,0
2017-02-15T02:41:39.071Z,0
2017-02-15T02:42:49.476Z,0
2017-02-15T02:44:00.271Z,0
2017-02-15T02:45:10.657Z,0
2017-02-15T02:46:21.449Z,0
2017-02-15T02:47:31.435Z,0
2017-02-15T02:48:41.413Z,0
2017-02-15T02:49:52.223Z,0
2017-02-15T02:51:01.815Z,0
2017-02-15T02:52:11.813Z,0
2017-02-15T02:53:22.579Z,0
2017-02-15T02:54:33.384Z,0
2017-02-15T02:55:43.797Z,0
2017-02-15T02:56:54.587Z,0
2017-02-15T02:58:04.993Z,0
2017-02-15T02:59:15.477Z,0
2017-02-15T03:00:26.261Z,0
2017-02-15T03:01:37.045Z,0
2017-02-15T03:33:35.929Z,0
2017-02-15T03:34:46.720Z,0
2017-02-15T03:35:57.103Z,0
2017-02-15T03:37:07.469Z,0
2017-02-15T03:38:17.434Z,0
2017-02-15T03:39:28.206Z,0
2017-02-15T03:40:38.569Z,0
2017-02-15T03:41:49.340Z,0
2017-02-15T03:43:00.127Z,0
2017-02-15T03:44:10.562Z,0
2017-02-15T03:45:20.952Z,0
2017-02-15T03:46:31.718Z,0
2017-02-15T03:47:42.119Z,0
2017-02-15T03:48:52.522Z,0
2017-02-15T03:50:02.917Z,0
2017-02-15T03:51:12.901Z,0
2017-02-15T03:52:22.896Z,0
2017-02-15T03:53:33.699Z,0
2017-02-15T03:54:44.498Z,0
2017-02-15T03:55:54.922Z,0
2017-02-15T03:57:05.680Z,0
2017-02-15T03:58:16.470Z,0
2017-02-15T03:59:27.253Z,0
2017-02-15T04:00:38.045Z,0
2017-02-15T04:01:48.446Z,0
2017-02-15T04:02:59.218Z,0
2017-02-15T04:04:10.024Z,0
2017-02-15T04:05:20.800Z,0
2017-02-15T04:06:31.603Z,0
2017-02-15T04:07:42.389Z,0
2017-02-15T04:08:53.178Z,0
2017-02-15T04:10:03.967Z,0
2017-02-15T04:11:14.366Z,0
2017-02-15T04:12:25.172Z,0
2017-02-15T04:13:35.153Z,0
2017-02-15T04:14:45.928Z,0
2017-02-15T04:15:56.720Z,0
2017-02-15T04:17:07.479Z,0
2017-02-15T04:18:18.260Z,0
2017-02-15T04:19:28.661Z,0
2017-02-15T04:20:38.660Z,0
2017-02-15T04:21:48.664Z,0
2017-02-15T04:22:59.061Z,0
2017-02-15T04:24:09.833Z,0
2017-02-15T04:25:20.626Z,0
2017-02-15T04:26:31.007Z,0
2017-02-15T04:27:41.384Z,0
2017-02-15T04:28:51.771Z,0
2017-02-15T04:30:02.173Z,0
2017-02-15T04:31:12.946Z,0
2017-02-15T04:32:23.733Z,0
2017-02-15T04:33:34.129Z,0
2017-02-15T04:34:44.514Z,0
2017-02-15T04:35:54.892Z,0
2017-02-15T04:37:04.881Z,0
2017-02-15T04:38:15.263Z,0
2017-02-15T04:39:25.641Z,0
2017-02-15T04:40:36.421Z,0
2017-02-15T04:41:46.432Z,0
2017-02-15T04:42:57.241Z,0
2017-02-15T04:44:07.225Z,0
2017-02-15T04:45:17.203Z,0
2017-02-15T04:46:27.600Z,0
2017-02-15T04:47:37.983Z,0
2017-02-15T04:48:48.373Z,0
2017-02-15T04:49:59.157Z,0
2017-02-15T04:51:08.758Z,0
2017-02-15T04:52:19.148Z,0
2017-02-15T04:53:29.923Z,0
2017-02-15T04:54:39.932Z,0
2017-02-15T04:55:50.323Z,0
2017-02-15T04:57:00.722Z,0
2017-02-15T04:58:11.514Z,0
2017-02-15T04:59:22.306Z,0
2017-02-15T05:00:32.678Z,0
2017-02-15T05:01:43.444Z,0
2017-02-15T05:02:54.235Z,0
2017-02-15T05:04:04.608Z,0
2017-02-15T05:05:15.394Z,0
2017-02-15T05:06:25.016Z,0
2017-02-15T05:07:35.017Z,0
2017-02-15T05:08:45.800Z,0
2017-02-15T05:09:56.582Z,0
2017-02-15T05:11:07.374Z,0
2017-02-15T05:12:18.176Z,0
2017-02-15T05:13:29.014Z,0
2017-02-15T05:14:39.792Z,0
2017-02-15T05:15:50.563Z,0
2017-02-15T05:17:01.352Z,0
2017-02-15T05:18:12.115Z,0
2017-02-15T05:19:22.113Z,0
2017-02-15T05:20:32.483Z,0
2017-02-15T05:21:43.267Z,0
2017-02-15T05:22:53.651Z,0
2017-02-15T05:24:04.039Z,0
2017-02-15T05:25:14.807Z,0
2017-02-15T05:26:25.254Z,0
2017-02-15T05:27:36.039Z,0
2017-02-15T05:28:46.815Z,0
2017-02-15T05:29:57.200Z,0
2017-02-15T05:31:07.207Z,0
2017-02-15T05:32:17.604Z,0
2017-02-15T05:33:27.980Z,0
2017-02-15T05:34:38.369Z,0
2017-02-15T05:35:49.159Z,0
2017-02-15T05:36:59.552Z,0
2017-02-15T05:38:09.953Z,0
2017-02-15T05:39:20.334Z,0
2017-02-15T05:40:31.127Z,0
2017-02-15T05:41:41.497Z,0
2017-02-15T05:42:51.881Z,0
2017-02-15T05:44:02.287Z,0
2017-02-15T05:45:12.669Z,0
2017-02-15T05:46:23.455Z,0
2017-02-15T05:47:33.863Z,0
2017-02-15T05:48:43.849Z,0
2017-02-15T05:49:54.220Z,0
2017-02-15T05:51:04.607Z,0
2017-02-15T05:52:15.375Z,0
2017-02-15T05:53:26.169Z,0
2017-02-15T05:54:36.969Z,0
2017-02-15T05:55:47.368Z,0
2017-02-15T05:56:57.792Z,0
2017-02-15T05:58:08.183Z,5
2017-02-15T05:59:18.971Z,5
2017-02-15T06:00:29.347Z,5
2017-02-15T06:01:39.342Z,5
2017-02-15T06:02:49.709Z,5
2017-02-15T06:04:00.126Z,5
2017-02-15T06:05:09.730Z,5
2017-02-15T06:06:20.123Z,10
2017-02-15T06:07:30.506Z,10
2017-02-15T06:08:41.269Z,10
2017-02-15T06:09:51.681Z,10
2017-02-15T06:11:02.456Z,10
2017-02-15T06:12:13.302Z,15
2017-02-15T06:13:23.679Z,15
2017-02-15T06:14:34.472Z,15
2017-02-15T06:15:44.890Z,15
2017-02-15T06:16:55.273Z,20
2017-02-15T06:18:06.065Z,20
2017-02-15T06:19:16.458Z,20
2017-02-15T06:20:26.847Z,20
2017-02-15T06:21:37.667Z,25
2017-02-15T06:22:48.046Z,25
2017-02-15T06:23:58.869Z,25
2017-02-15T06:25:09.656Z,30
2017-02-15T06:26:20.492Z,30
2017-02-15T06:27:31.286Z,30
2017-02-15T06:28:41.687Z,30
2017-02-15T06:29:52.083Z,35
2017-02-15T06:31:02.469Z,35
2017-02-15T06:32:12.861Z,35
2017-02-15T06:33:23.656Z,40
2017-02-15T06:34:34.296Z,40
2017-02-15T06:35:45.088Z,40
2017-02-15T06:36:55.873Z,40
2017-02-15T06:38:06.880Z,45
2017-02-15T06:39:16.872Z,45
2017-02-15T06:40:27.894Z,45
2017-02-15T06:41:38.677Z,50
2017-02-15T06:42:49.070Z,50
2017-02-15T06:44:00.085Z,50
2017-02-15T06:45:10.881Z,55
2017-02-15T06:46:21.673Z,55
2017-02-15T06:47:32.065Z,55
2017-02-15T06:48:42.467Z,55
2017-02-15T06:49:52.875Z,55
2017-02-15T06:51:03.674Z,55
2017-02-15T06:52:14.444Z,60
2017-02-15T06:53:25.248Z,60
2017-02-15T06:54:35.665Z,60
2017-02-15T06:55:45.655Z,60
2017-02-15T06:56:56.052Z,65
2017-02-15T06:58:06.651Z,65
2017-02-15T06:59:17.532Z,65
2017-02-15T07:00:28.328Z,70
2017-02-15T07:01:38.750Z,70
2017-02-15T07:02:49.551Z,70
2017-02-15T07:03:59.558Z,75
2017-02-15T07:05:09.542Z,75
2017-02-15T07:06:19.938Z,75
2017-02-15T07:07:30.298Z,80
2017-02-15T07:08:41.075Z,80
2017-02-15T07:09:51.879Z,80
2017-02-15T07:11:02.651Z,80
2017-02-15T07:12:12.632Z,85
2017-02-15T07:13:23.414Z,85
2017-02-15T07:14:33.803Z,85
2017-02-15T07:15:44.209Z,85
2017-02-15T07:16:54.211Z,90
2017-02-15T07:18:05.002Z,90
2017-02-15T07:19:15.422Z,90
2017-02-15T07:20:26.204Z,95
2017-02-15T07:21:36.587Z,95
2017-02-15T07:22:46.976Z,95
2017-02-15T07:23:57.405Z,95
2017-02-15T07:25:08.180Z,100
2017-02-15T07:26:18.421Z,100
2017-02-15T07:27:28.793Z,100
2017-02-15T07:28:39.590Z,100
2017-02-15T07:29:50.380Z,105
2017-02-15T07:31:00.368Z,105
2017-02-15T07:32:11.152Z,105
2017-02-15T07:33:20.775Z,105
2017-02-15T07:34:31.557Z,110
2017-02-15T07:35:42.341Z,110
2017-02-15T07:36:52.342Z,110
2017-02-15T07:38:02.368Z,115
2017-02-15T07:39:13.147Z,115
2017-02-15T07:40:23.125Z,115
2017-02-15T07:41:33.910Z,115
2017-02-15T07:42:44.300Z,115
2017-02-15T07:43:54.283Z,115
2017-02-15T07:45:05.100Z,115
2017-02-15T07:46:15.491Z,115
2017-02-15T07:47:26.293Z,115
2017-02-15T07:48:36.738Z,120
2017-02-15T07:49:47.527Z,120
2017-02-15T07:50:57.526Z,120
2017-02-15T07:52:07.513Z,120
2017-02-15T07:53:17.501Z,125
2017-02-15T07:54:27.905Z,125
2017-02-15T07:55:38.275Z,125
2017-02-15T07:56:48.655Z,125
2017-02-15T07:57:59.509Z,125
2017-02-15T07:59:09.911Z,130
2017-02-15T08:00:20.693Z,130
2017-02-15T08:01:31.099Z,130
2017-02-15T08:02:41.893Z,130
2017-02-15T08:03:52.732Z,135
2017-02-15T08:05:02.712Z,135
2017-02-15T08:06:13.083Z,135
2017-02-15T08:07:23.877Z,135
2017-02-15T08:08:34.252Z,140
2017-02-15T08:09:45.045Z,140
2017-02-15T08:10:55.447Z,140
2017-02-15T08:12:05.828Z,140
2017-02-15T08:13:16.216Z,140
2017-02-15T08:14:26.607Z,145
2017-02-15T08:15:36.650Z,145
2017-02-15T08:16:47.045Z,145
2017-02-15T08:17:57.437Z,145
2017-02-15T08:19:07.430Z,145
2017-02-15T08:20:18.219Z,150
2017-02-15T08:21:29.011Z,150
2017-02-15T08:22:39.808Z,150
2017-02-15T08:23:50.229Z,150
2017-02-15T08:25:00.614Z,150
2017-02-15T08:26:11.421Z,155
2017-02-15T08:27:22.240Z,150
2017-02-15T08:28:32.221Z,155
2017-02-15T08:29:42.616Z,155
2017-02-15T08:30:53.007Z,155
2017-02-15T08:32:03.417Z,155
2017-02-15T08:33:13.418Z,160
2017-02-15T08:34:24.222Z,160
2017-02-15T08:35:35.011Z,160
2017-02-15T08:36:45.804Z,160
2017-02-15T08:37:56.596Z,165
2017-02-15T08:39:06.987Z,165
2017-02-15T08:40:17.375Z,165
2017-02-15T08:41:27.781Z,165
2017-02-15T08:42:38.588Z,165
2017-02-15T08:43:49.367Z,170
2017-02-15T08:44:59.796Z,170
2017-02-15T08:46:10.598Z,170
2017-02-15T08:47:21.384Z,170
2017-02-15T08:48:32.150Z,170
2017-02-15T08:49:42.183Z,170
2017-02-15T08:50:52.570Z,170
2017-02-15T08:52:02.951Z,170
2017-02-15T08:53:13.340Z,170
2017-02-15T08:54:24.131Z,175
2017-02-15T08:55:34.926Z,175
2017-02-15T08:56:45.753Z,175
2017-02-15T08:57:56.532Z,175
2017-02-15T08:59:07.328Z,175
2017-02-15T09:00:17.732Z,180
2017-02-15T09:01:28.128Z,180
2017-02-15T09:02:38.216Z,180
2017-02-15T09:03:47.816Z,180
2017-02-15T09:04:58.227Z,185
2017-02-15T09:06:09.030Z,180
2017-02-15T09:07:19.024Z,180
2017-02-15T09:08:29.059Z,180
2017-02-15T09:09:39.063Z,180
2017-02-15T09:10:49.899Z,185
2017-02-15T09:12:00.309Z,185
2017-02-15T09:13:09.905Z,190
2017-02-15T09:14:20.319Z,190
2017-02-15T09:15:31.109Z,190
2017-02-15T09:16:41.922Z,190
2017-02-15T09:17:52.322Z,190
2017-02-15T09:19:02.725Z,190
2017-02-15T09:20:13.175Z,190
2017-02-15T09:21:23.958Z,190
2017-02-15T09:22:33.987Z,190
2017-02-15T09:23:44.382Z,195
2017-02-15T09:24:54.397Z,195
2017-02-15T09:26:04.417Z,195
2017-02-15T09:27:14.402Z,195
2017-02-15T09:28:24.800Z,195
2017-02-15T09:29:34.776Z,195
2017-02-15T09:30:44.374Z,195
2017-02-15T09:31:55.178Z,195
2017-02-15T09:33:05.189Z,200
2017-02-15T09:34:16.025Z,200
2017-02-15T09:35:26.418Z,200
2017-02-15T09:36:37.228Z,200
2017-02-15T09:37:48.002Z,200
2017-02-15T09:38:58.003Z,205
2017-02-15T09:40:08.801Z,205
2017-02-15T09:41:19.658Z,205
2017-02-15T09:42:30.439Z,205
2017-02-15T09:43:40.821Z,205
2017-02-15T09:44:51.602Z,205
2017-02-15T09:46:01.975Z,205
2017-02-15T09:47:12.391Z,210
2017-02-15T09:48:22.397Z,205
2017-02-15T09:49:32.379Z,205
2017-02-15T09:50:42.789Z,205
2017-02-15T09:51:53.580Z,210
2017-02-15T09:53:04.405Z,210
2017-02-15T09:54:15.206Z,210
2017-02-15T09:55:25.599Z,210
2017-02-15T09:56:36.416Z,210
2017-02-15T09:57:47.249Z,220
2017-02-15T09:58:57.233Z,215
2017-02-15T10:00:08.027Z,215
2017-02-15T10:01:18.825Z,220
2017-02-15T10:02:29.219Z,215
2017-02-15T10:03:39.657Z,215
2017-02-15T10:04:50.483Z,215
2017-02-15T10:06:01.259Z,220
2017-02-15T10:07:12.117Z,220
2017-02-15T10:08:22.516Z,220
2017-02-15T10:09:32.500Z,215
2017-02-15T10:10:43.279Z,220
2017-02-15T10:11:53.682Z,215
2017-02-15T10:13:03.688Z,225
2017-02-15T10:14:14.474Z,220
2017-02-15T10:15:24.478Z,220
2017-02-15T10:16:35.289Z,215
2017-02-15T10:17:46.077Z,225
2017-02-15T10:18:56.861Z,220
2017-02-15T10:20:06.866Z,220
2017-02-15T10:21:16.874Z,220
2017-02-15T10:22:27.265Z,220
2017-02-15T10:23:38.056Z,220
2017-02-15T10:24:48.449Z,225
2017-02-15T10:25:59.251Z,220
2017-02-15T10:27:09.648Z,220
2017-02-15T10:28:20.440Z,225
2017-02-15T10:29:30.438Z,225
2017-02-15T10:30:40.889Z,225
2017-02-15T10:31:51.291Z,225
2017-02-15T10:33:01.728Z,225
2017-02-15T10:34:12.120Z,225
2017-02-15T10:35:22.920Z,225
2017-02-15T10:36:33.713Z,225
2017-02-15T10:37:44.493Z,225
2017-02-15T10:38:55.374Z,225
2017-02-15T10:40:05.758Z,225
2017-02-15T10:41:16.152Z,230
2017-02-15T10:42:26.932Z,230
2017-02-15T10:43:37.308Z,230
2017-02-15T10:44:47.716Z,230
2017-02-15T10:45:58.121Z,230
2017-02-15T10:47:08.160Z,230
2017-02-15T10:48:18.574Z,230
2017-02-15T10:49:28.997Z,235
2017-02-15T10:50:39.380Z,235
2017-02-15T10:51:49.804Z,235
2017-02-15T10:53:00.621Z,235
2017-02-15T10:54:11.005Z,235
2017-02-15T10:55:21.406Z,235
2017-02-15T10:56:33.328Z,230
2017-02-15T10:57:44.279Z,235
2017-02-15T10:58:55.315Z,235
2017-02-15T11:00:06.462Z,235
2017-02-15T11:01:16.460Z,235
2017-02-15T11:02:26.890Z,240
2017-02-15T11:03:36.937Z,235
2017-02-15T11:04:46.981Z,240
2017-02-15T11:05:57.424Z,240
2017-02-15T11:07:08.586Z,240
2017-02-15T11:08:18.636Z,240
2017-02-15T11:09:32.160Z,240
2017-02-15T11:10:44.932Z,240
2017-02-15T11:11:58.684Z,240
2017-02-15T11:13:10.036Z,240
2017-02-15T11:14:20.655Z,240
2017-02-15T11:15:31.492Z,240
2017-02-15T11:16:41.927Z,240
2017-02-15T11:17:52.776Z,240
2017-02-15T11:19:03.619Z,240
2017-02-15T11:20:14.451Z,240
2017-02-15T11:21:25.279Z,240
2017-02-15T11:22:35.347Z,240
2017-02-15T11:23:46.262Z,240
2017-02-15T11:24:57.087Z,240
2017-02-15T11:26:07.563Z,240
2017-02-15T11:27:18.445Z,240
2017-02-15T11:28:28.912Z,240
2017-02-15T11:29:39.993Z,240
2017-02-15T11:30:50.849Z,240
2017-02-15T11:32:00.918Z,240
2017-02-15T11:33:11.766Z,240
2017-02-15T11:34:22.587Z,240
2017-02-15T11:35:33.422Z,240
2017-02-15T11:36:44.250Z,240
2017-02-15T11:37:55.093Z,240
2017-02-15T11:39:05.532Z,240
2017-02-15T11:40:16.371Z,240
2017-02-15T11:41:27.199Z,240
2017-02-15T11:42:38.041Z,240
2017-02-15T11:43:48.477Z,235
2017-02-15T11:44:58.900Z,235
2017-02-15T11:46:09.737Z,235
2017-02-15T11:47:20.595Z,235
2017-02-15T11:48:30.623Z,235
2017-02-15T11:49:40.290Z,235
2017-02-15T11:50:51.125Z,235
2017-02-15T11:52:01.559Z,235
2017-02-15T11:53:12.638Z,235
2017-02-15T11:54:22.642Z,235
2017-02-15T11:55:33.434Z,235
2017-02-15T11:56:44.244Z,235
2017-02-15T11:57:55.037Z,235
2017-02-15T11:59:05.827Z,240
2017-02-15T12:00:16.639Z,240
2017-02-15T12:01:27.075Z,240
2017-02-15T12:02:37.869Z,240
2017-02-15T12:03:48.691Z,240
2017-02-15T12:04:59.124Z,240
2017-02-15T12:06:09.544Z,240
2017-02-15T12:07:19.961Z,240
2017-02-15T12:08:30.785Z,240
2017-02-15T12:09:41.601Z,235
2017-02-15T12:10:51.634Z,235
2017-02-15T12:12:02.458Z,235
2017-02-15T12:13:12.504Z,240
2017-02-15T12:14:23.336Z,240
2017-02-15T12:15:33.736Z,240
2017-02-15T12:16:44.558Z,245
2017-02-15T12:17:55.356Z,240
2017-02-15T12:19:06.156Z,245
2017-02-15T12:20:16.173Z,240
2017-02-15T12:21:26.965Z,245
2017-02-15T12:22:37.769Z,245
2017-02-15T12:23:48.590Z,245
2017-02-15T12:24:59.393Z,245
2017-02-15T12:26:10.203Z,245
2017-02-15T12:27:21.056Z,245
2017-02-15T12:28:31.684Z,245
2017-02-15T12:29:42.111Z,250
2017-02-15T12:30:52.923Z,250
2017-02-15T12:32:03.741Z,250
2017-02-15T12:33:13.778Z,250
2017-02-15T12:34:24.592Z,250
2017-02-15T12:35:35.418Z,250
2017-02-15T12:36:45.439Z,250
2017-02-15T12:37:55.854Z,250
2017-02-15T12:39:05.450Z,250
2017-02-15T12:40:15.476Z,250
2017-02-15T12:41:25.472Z,250
2017-02-15T12:42:35.910Z,250
2017-02-15T12:43:46.339Z,250
2017-02-15T12:44:57.162Z,255
2017-02-15T12:46:07.569Z,255
2017-02-15T12:47:18.354Z,250
2017-02-15T12:48:29.204Z,255
2017-02-15T12:49:39.997Z,255
2017-02-15T12:50:50.792Z,250
2017-02-15T12:52:01.568Z,250
2017-02-15T12:53:11.979Z,250
2017-02-15T12:54:22.030Z,250
2017-02-15T12:55:32.839Z,245
2017-02-15T12:56:43.249Z,245
2017-02-15T12:57:53.633Z,250
2017-02-15T12:59:04.029Z,245
2017-02-15T13:00:14.823Z,245
2017-02-15T13:01:25.261Z,240
2017-02-15T13:02:34.844Z,240
2017-02-15T13:03:45.648Z,240
2017-02-15T13:04:56.455Z,235
2017-02-15T13:06:06.482Z,235
2017-02-15T13:07:17.303Z,235
2017-02-15T13:08:27.740Z,230
2017-02-15T13:09:38.549Z,235
2017-02-15T13:10:49.036Z,225
2017-02-15T13:11:59.467Z,225
2017-02-15T13:13:09.897Z,225
2017-02-15T13:14:20.703Z,220
2017-02-15T13:15:31.117Z,220
2017-02-15T13:16:41.542Z,220
2017-02-15T13:17:51.937Z,220
2017-02-15T13:19:02.359Z,220
2017-02-15T13:20:13.185Z,215
2017-02-15T13:21:23.999Z,215
2017-02-15T13:22:34.831Z,210
2017-02-15T13:23:45.662Z,210
2017-02-15T13:24:56.472Z,215
2017-02-15T13:26:07.287Z,210
2017-02-15T13:27:17.707Z,210
2017-02-15T13:28:28.517Z,205
2017-02-15T13:29:38.951Z,205
2017-02-15T13:30:49.774Z,205
2017-02-15T13:32:00.578Z,205
2017-02-15T13:33:11.021Z,200
2017-02-15T13:34:21.066Z,200
2017-02-15T13:35:31.888Z,200
2017-02-15T13:36:42.326Z,200
2017-02-15T13:37:53.143Z,200
2017-02-15T13:39:03.956Z,200
2017-02-15T13:40:14.759Z,200
2017-02-15T13:41:25.152Z,195
2017-02-15T13:42:36.131Z,195
2017-02-15T13:43:46.958Z,195
2017-02-15T13:44:57.760Z,195
2017-02-15T13:46:08.178Z,190
2017-02-15T13:47:18.996Z,190
2017-02-15T13:48:29.816Z,190
2017-02-15T13:49:40.652Z,190
2017-02-15T13:50:51.451Z,190
2017-02-15T13:52:02.249Z,190
2017-02-15T13:53:12.654Z,190
2017-02-15T13:54:23.445Z,190
2017-02-15T13:55:33.850Z,185
2017-02-15T13:56:44.757Z,185
2017-02-15T13:57:54.772Z,180
2017-02-15T13:59:05.182Z,185
2017-02-15T14:00:15.969Z,180
2017-02-15T14:01:26.811Z,180
2017-02-15T14:02:37.202Z,185
2017-02-15T14:03:48.046Z,185
2017-02-15T14:04:58.476Z,180
2017-02-15T14:06:08.891Z,175
2017-02-15T14:07:19.323Z,175
2017-02-15T14:08:29.354Z,175
2017-02-15T14:09:40.181Z,175
2017-02-15T14:10:50.988Z,175
2017-02-15T14:12:00.597Z,175
2017-02-15T14:13:11.018Z,170
2017-02-15T14:14:21.792Z,170
2017-02-15T14:15:31.804Z,170
2017-02-15T14:16:41.855Z,165
2017-02-15T14:17:52.661Z,165
2017-02-15T14:19:03.478Z,165
2017-02-15T14:20:13.109Z,165
2017-02-15T14:21:23.920Z,160
2017-02-15T14:22:34.319Z,160
2017-02-15T14:23:44.744Z,160
2017-02-15T14:24:54.349Z,160
2017-02-15T14:26:05.144Z,160
2017-02-15T14:27:15.142Z,160
2017-02-15T14:28:25.548Z,160
2017-02-15T14:29:35.563Z,155
2017-02-15T14:30:46.355Z,155
2017-02-15T14:31:56.382Z,155
2017-02-15T14:33:07.189Z,150
2017-02-15T14:34:17.579Z,150
2017-02-15T14:35:28.363Z,145
2017-02-15T14:36:38.774Z,145
2017-02-15T14:37:48.788Z,145
2017-02-15T14:38:59.583Z,145
2017-02-15T14:40:09.610Z,140
2017-02-15T14:41:19.611Z,140
2017-02-15T14:42:30.043Z,140
2017-02-15T14:43:40.440Z,135
2017-02-15T14:44:50.851Z,135
2017-02-15T14:46:01.260Z,130
2017-02-15T14:47:12.071Z,130
2017-02-15T14:48:22.491Z,125
2017-02-15T14:49:33.324Z,125
2017-02-15T14:50:43.706Z,120
2017-02-15T14:51:53.736Z,120
2017-02-15T14:53:04.548Z,120
2017-02-15T14:54:14.999Z,115
2017-02-15T14:55:25.811Z,115
2017-02-15T14:56:36.222Z,110
2017-02-15T14:57:46.619Z,110
2017-02-15T14:58:57.036Z,110
2017-02-15T15:00:07.847Z,105
2017-02-15T15:01:18.645Z,105
2017-02-15T15:02:29.036Z,105
2017-02-15T15:03:39.043Z,100
2017-02-15T15:04:49.440Z,100
2017-02-15T15:05:59.831Z,95
2017-02-15T15:07:10.293Z,95
2017-02-15T15:08:21.120Z,90
2017-02-15T15:09:31.118Z,90
2017-02-15T15:10:41.128Z,90
2017-02-15T15:11:51.966Z,90
2017-02-15T15:13:02.748Z,85
2017-02-15T15:14:13.174Z,85
2017-02-15T15:15:23.573Z,85
2017-02-15T15:16:34.359Z,80
2017-02-15T15:17:44.766Z,80
2017-02-15T15:18:55.191Z,75
2017-02-15T15:20:05.588Z,75
2017-02-15T15:21:16.387Z,70
2017-02-15T15:22:26.805Z,70
2017-02-15T15:23:37.611Z,70
2017-02-15T15:24:48.405Z,65
2017-02-15T15:25:58.416Z,65
2017-02-15T15:27:08.837Z,60
2017-02-15T15:28:19.649Z,60
2017-02-15T15:29:30.451Z,60
2017-02-15T15:30:40.057Z,55
2017-02-15T15:31:50.869Z,55
2017-02-15T15:33:01.262Z,50
2017-02-15T15:34:12.028Z,50
2017-02-15T15:35:22.461Z,45
2017-02-15T15:36:32.852Z,45
2017-02-15T15:37:43.672Z,45
2017-02-15T15:38:54.050Z,45
2017-02-15T15:40:04.432Z,45
2017-02-15T15:41:14.850Z,40
2017-02-15T15:42:25.682Z,40
2017-02-15T15:43:36.088Z,35
2017-02-15T15:44:46.896Z,35
2017-02-15T15:45:56.504Z,35
2017-02-15T15:47:06.921Z,35
2017-02-15T15:48:17.302Z,30
2017-02-15T15:49:27.715Z,30
2017-02-15T15:50:37.316Z,25
2017-02-15T15:51:47.699Z,25
2017-02-15T15:52:58.125Z,25
2017-02-15T15:54:08.551Z,25
2017-02-15T15:55:19.349Z,20
2017-02-15T15:56:30.138Z,20
2017-02-15T15:57:39.759Z,20
2017-02-15T15:58:50.593Z,15
2017-02-15T16:00:00.584Z,15
2017-02-15T16:01:11.375Z,15
2017-02-15T16:02:21.778Z,15
2017-02-15T16:03:32.200Z,15
2017-02-15T16:04:42.583Z,10
2017-02-15T16:05:53.383Z,10
2017-02-15T16:07:02.988Z,10
2017-02-15T16:08:13.035Z,10
2017-02-15T16:09:22.652Z,10
2017-02-15T16:10:33.040Z,5
2017-02-15T16:11:43.050Z,5
2017-02-15T16:12:53.853Z,5
2017-02-15T16:14:04.257Z,5
2017-02-15T16:15:15.038Z,5
2017-02-15T16:16:25.837Z,5
2017-02-15T16:17:35.886Z,5
2017-02-15T16:18:46.297Z,0
2017-02-15T16:19:57.100Z,0
2017-02-15T16:21:07.886Z,0
2017-02-15T16:22:17.910Z,0
2017-02-15T16:23:28.712Z,0
2017-02-15T16:24:39.098Z,0
2017-02-15T16:25:49.899Z,0
2017-02-15T16:27:00.763Z,0
2017-02-15T16:28:09.971Z,0
2017-02-15T16:29:19.986Z,0
2017-02-15T16:30:29.968Z,0
2017-02-15T16:31:40.795Z,0
2017-02-15T16:32:51.193Z,0
2017-02-15T16:34:01.196Z,0
2017-02-15T16:35:11.614Z,0
2017-02-15T16:36:21.993Z,0
2017-02-15T16:37:32.779Z,0
2017-02-15T16:38:43.591Z,0
2017-02-15T16:39:53.983Z,0
2017-02-15T16:41:04.783Z,0
2017-02-15T16:42:15.167Z,0
2017-02-15T16:43:25.582Z,0
2017-02-15T16:44:36.008Z,0
2017-02-15T16:45:46.409Z,0
2017-02-15T16:46:56.809Z,0
2017-02-15T16:48:07.229Z,0
2017-02-15T16:49:17.630Z,0
2017-02-15T16:50:28.422Z,0
2017-02-15T16:51:38.809Z,0
2017-02-15T16:52:49.193Z,0
2017-02-15T16:53:59.591Z,0
2017-02-15T16:55:10.409Z,0
2017-02-15T16:56:20.807Z,0
2017-02-15T16:57:31.194Z,0
2017-02-15T16:58:41.604Z,0
2017-02-15T16:59:52.395Z,0
2017-02-15T17:01:03.156Z,0
2017-02-15T17:02:13.169Z,0
2017-02-15T17:03:23.969Z,0
2017-02-15T17:04:34.434Z,0
2017-02-15T17:05:44.849Z,0
2017-02-15T17:06:54.845Z,0
2017-02-15T17:08:05.658Z,0
2017-02-15T17:09:16.054Z,0
2017-02-15T17:10:26.452Z,0
2017-02-15T17:11:36.830Z,0
2017-02-15T17:12:47.243Z,0
2017-02-15T17:13:58.051Z,0